sensor_id;sensor_type;location;lat;lon;timestamp;temperature;humidity
66102;HTU21D;52883;51.094;5.880;2023-05-10T00:01:46;13.14;118.99
66102;HTU21D;52883;51.094;5.880;2023-05-10T00:04:11;13.14;118.99
66102;HTU21D;52883;51.094;5.880;2023-05-10T00:06:37;13.12;118.99
66102;HTU21D;52883;51.094;5.880;2023-05-10T00:09:03;13.11;118.99
66102;HTU21D;52883;51.094;5.880;2023-05-10T00:11:29;13.14;118.99
66102;HTU21D;52883;51.094;5.880;2023-05-10T00:13:54;13.12;118.99
66102;HTU21D;52883;51.094;5.880;2023-05-10T00:16:21;13.11;118.99
66102;HTU21D;52883;51.094;5.880;2023-05-10T00:18:46;13.11;118.99
66102;HTU21D;52883;51.094;5.880;2023-05-10T00:21:12;13.08;118.99
66102;HTU21D;52883;51.094;5.880;2023-05-10T00:23:37;13.07;118.99
66102;HTU21D;52883;51.094;5.880;2023-05-10T00:26:03;13.08;118.99
66102;HTU21D;52883;51.094;5.880;2023-05-10T00:28:29;13.07;118.99
66102;HTU21D;52883;51.094;5.880;2023-05-10T00:30:55;13.06;118.99
66102;HTU21D;52883;51.094;5.880;2023-05-10T00:33:21;13.02;118.99
66102;HTU21D;52883;51.094;5.880;2023-05-10T00:35:47;12.99;118.99
66102;HTU21D;52883;51.094;5.880;2023-05-10T00:38:13;12.94;118.99
66102;HTU21D;52883;51.094;5.880;2023-05-10T00:40:38;12.91;118.99
66102;HTU21D;52883;51.094;5.880;2023-05-10T00:43:09;12.90;118.99
66102;HTU21D;52883;51.094;5.880;2023-05-10T00:45:35;12.91;118.99
66102;HTU21D;52883;51.094;5.880;2023-05-10T00:48:03;12.93;118.99
66102;HTU21D;52883;51.094;5.880;2023-05-10T00:50:30;12.93;118.99
66102;HTU21D;52883;51.094;5.880;2023-05-10T00:52:59;12.94;118.99
66102;HTU21D;52883;51.094;5.880;2023-05-10T00:55:25;12.95;118.99
66102;HTU21D;52883;51.094;5.880;2023-05-10T00:57:52;12.96;118.99
66102;HTU21D;52883;51.094;5.880;2023-05-10T01:00:19;12.96;118.99
66102;HTU21D;52883;51.094;5.880;2023-05-10T01:02:45;12.96;118.99
66102;HTU21D;52883;51.094;5.880;2023-05-10T01:05:12;12.99;118.99
66102;HTU21D;52883;51.094;5.880;2023-05-10T01:07:38;13.01;118.99
66102;HTU21D;52883;51.094;5.880;2023-05-10T01:10:06;13.01;118.99
66102;HTU21D;52883;51.094;5.880;2023-05-10T01:12:33;13.00;118.99
66102;HTU21D;52883;51.094;5.880;2023-05-10T01:15:01;12.99;118.99
66102;HTU21D;52883;51.094;5.880;2023-05-10T01:17:27;12.99;118.99
66102;HTU21D;52883;51.094;5.880;2023-05-10T01:19:53;12.97;118.99
66102;HTU21D;52883;51.094;5.880;2023-05-10T01:25:37;13.01;118.99
66102;HTU21D;52883;51.094;5.880;2023-05-10T01:28:52;13.02;118.99
66102;HTU21D;52883;51.094;5.880;2023-05-10T01:31:31;13.02;118.99
66102;HTU21D;52883;51.094;5.880;2023-05-10T01:34:07;13.00;118.99
66102;HTU21D;52883;51.094;5.880;2023-05-10T01:36:43;12.97;118.99
66102;HTU21D;52883;51.094;5.880;2023-05-10T01:42:07;13.02;118.99
66102;HTU21D;52883;51.094;5.880;2023-05-10T01:44:55;13.03;118.99
66102;HTU21D;52883;51.094;5.880;2023-05-10T01:47:58;13.04;118.99
66102;HTU21D;52883;51.094;5.880;2023-05-10T01:50:30;13.02;118.99
66102;HTU21D;52883;51.094;5.880;2023-05-10T01:52:58;13.04;118.99
66102;HTU21D;52883;51.094;5.880;2023-05-10T01:55:32;13.03;118.99
66102;HTU21D;52883;51.094;5.880;2023-05-10T01:58:11;13.01;118.99
66102;HTU21D;52883;51.094;5.880;2023-05-10T02:00:43;12.99;118.99
66102;HTU21D;52883;51.094;5.880;2023-05-10T02:03:11;12.95;118.99
66102;HTU21D;52883;51.094;5.880;2023-05-10T02:05:39;12.94;118.99
66102;HTU21D;52883;51.094;5.880;2023-05-10T02:08:08;12.92;118.99
66102;HTU21D;52883;51.094;5.880;2023-05-10T02:10:37;12.89;118.99
66102;HTU21D;52883;51.094;5.880;2023-05-10T02:13:07;12.90;118.99
66102;HTU21D;52883;51.094;5.880;2023-05-10T02:15:34;12.91;118.99
66102;HTU21D;52883;51.094;5.880;2023-05-10T02:18:02;12.93;118.99
66102;HTU21D;52883;51.094;5.880;2023-05-10T02:20:31;12.93;118.99
66102;HTU21D;52883;51.094;5.880;2023-05-10T02:22:58;12.94;118.99
66102;HTU21D;52883;51.094;5.880;2023-05-10T02:25:26;12.94;118.99
66102;HTU21D;52883;51.094;5.880;2023-05-10T02:27:55;12.96;118.99
66102;HTU21D;52883;51.094;5.880;2023-05-10T02:30:23;12.96;118.99
66102;HTU21D;52883;51.094;5.880;2023-05-10T02:32:51;12.95;118.99
66102;HTU21D;52883;51.094;5.880;2023-05-10T02:35:18;12.94;118.99
66102;HTU21D;52883;51.094;5.880;2023-05-10T02:37:46;12.93;118.99
66102;HTU21D;52883;51.094;5.880;2023-05-10T02:40:16;12.90;118.99
66102;HTU21D;52883;51.094;5.880;2023-05-10T02:42:45;12.87;118.99
66102;HTU21D;52883;51.094;5.880;2023-05-10T02:45:17;12.86;118.99
66102;HTU21D;52883;51.094;5.880;2023-05-10T02:47:43;12.86;118.99
66102;HTU21D;52883;51.094;5.880;2023-05-10T02:50:09;12.87;118.99
66102;HTU21D;52883;51.094;5.880;2023-05-10T02:52:44;12.86;118.99
66102;HTU21D;52883;51.094;5.880;2023-05-10T02:55:14;12.89;118.99
66102;HTU21D;52883;51.094;5.880;2023-05-10T02:57:59;12.86;118.99
66102;HTU21D;52883;51.094;5.880;2023-05-10T03:00:25;12.86;118.99
66102;HTU21D;52883;51.094;5.880;2023-05-10T03:02:51;12.86;118.99
66102;HTU21D;52883;51.094;5.880;2023-05-10T03:05:18;12.84;118.99
66102;HTU21D;52883;51.094;5.880;2023-05-10T03:07:44;12.82;118.99
66102;HTU21D;52883;51.094;5.880;2023-05-10T03:10:10;12.80;118.99
66102;HTU21D;52883;51.094;5.880;2023-05-10T03:15:48;12.76;118.99
66102;HTU21D;52883;51.094;5.880;2023-05-10T03:21:11;12.65;118.99
66102;HTU21D;52883;51.094;5.880;2023-05-10T03:23:43;12.63;118.99
66102;HTU21D;52883;51.094;5.880;2023-05-10T03:26:18;12.61;118.99
66102;HTU21D;52883;51.094;5.880;2023-05-10T03:28:48;12.58;118.99
66102;HTU21D;52883;51.094;5.880;2023-05-10T03:31:14;12.58;118.99
66102;HTU21D;52883;51.094;5.880;2023-05-10T03:33:47;12.58;118.99
66102;HTU21D;52883;51.094;5.880;2023-05-10T03:36:15;12.58;118.99
66102;HTU21D;52883;51.094;5.880;2023-05-10T03:38:41;12.56;118.99
66102;HTU21D;52883;51.094;5.880;2023-05-10T03:41:07;12.56;118.99
66102;HTU21D;52883;51.094;5.880;2023-05-10T03:43:33;12.57;118.99
66102;HTU21D;52883;51.094;5.880;2023-05-10T03:45:58;12.57;118.99
66102;HTU21D;52883;51.094;5.880;2023-05-10T03:48:24;12.55;118.99
66102;HTU21D;52883;51.094;5.880;2023-05-10T03:50:49;12.55;118.99
66102;HTU21D;52883;51.094;5.880;2023-05-10T03:53:15;12.53;118.99
66102;HTU21D;52883;51.094;5.880;2023-05-10T03:55:41;12.52;118.99
66102;HTU21D;52883;51.094;5.880;2023-05-10T03:58:11;12.51;118.99
66102;HTU21D;52883;51.094;5.880;2023-05-10T04:00:36;12.50;118.99
66102;HTU21D;52883;51.094;5.880;2023-05-10T04:03:02;12.51;118.99
66102;HTU21D;52883;51.094;5.880;2023-05-10T04:05:28;12.48;118.99
66102;HTU21D;52883;51.094;5.880;2023-05-10T04:07:54;12.46;118.99
66102;HTU21D;52883;51.094;5.880;2023-05-10T04:10:20;12.48;118.99
66102;HTU21D;52883;51.094;5.880;2023-05-10T04:12:46;12.49;118.99
66102;HTU21D;52883;51.094;5.880;2023-05-10T04:15:12;12.48;118.99
66102;HTU21D;52883;51.094;5.880;2023-05-10T04:17:37;12.49;118.99
66102;HTU21D;52883;51.094;5.880;2023-05-10T04:20:03;12.52;118.99
66102;HTU21D;52883;51.094;5.880;2023-05-10T04:22:29;12.53;118.99
66102;HTU21D;52883;51.094;5.880;2023-05-10T04:24:55;12.52;118.99
66102;HTU21D;52883;51.094;5.880;2023-05-10T04:27:21;12.53;118.99
66102;HTU21D;52883;51.094;5.880;2023-05-10T04:29:46;12.57;118.99
66102;HTU21D;52883;51.094;5.880;2023-05-10T04:32:12;12.57;118.99
66102;HTU21D;52883;51.094;5.880;2023-05-10T04:34:37;12.60;118.99
66102;HTU21D;52883;51.094;5.880;2023-05-10T04:37:03;12.63;118.99
66102;HTU21D;52883;51.094;5.880;2023-05-10T04:39:29;12.65;118.99
66102;HTU21D;52883;51.094;5.880;2023-05-10T04:41:54;12.66;118.99
66102;HTU21D;52883;51.094;5.880;2023-05-10T04:44:20;12.70;118.99
66102;HTU21D;52883;51.094;5.880;2023-05-10T04:46:45;12.71;118.99
66102;HTU21D;52883;51.094;5.880;2023-05-10T04:49:11;12.73;118.99
66102;HTU21D;52883;51.094;5.880;2023-05-10T04:51:37;12.74;118.99
66102;HTU21D;52883;51.094;5.880;2023-05-10T04:54:02;12.74;118.99
66102;HTU21D;52883;51.094;5.880;2023-05-10T04:56:28;12.77;118.99
66102;HTU21D;52883;51.094;5.880;2023-05-10T04:58:53;12.79;118.99
66102;HTU21D;52883;51.094;5.880;2023-05-10T05:01:19;12.79;118.99
66102;HTU21D;52883;51.094;5.880;2023-05-10T05:03:44;12.78;118.99
66102;HTU21D;52883;51.094;5.880;2023-05-10T05:06:10;12.78;118.99
66102;HTU21D;52883;51.094;5.880;2023-05-10T05:08:35;12.81;118.99
66102;HTU21D;52883;51.094;5.880;2023-05-10T05:11:01;12.79;118.99
66102;HTU21D;52883;51.094;5.880;2023-05-10T05:13:27;12.77;118.99
66102;HTU21D;52883;51.094;5.880;2023-05-10T05:15:52;12.77;118.99
66102;HTU21D;52883;51.094;5.880;2023-05-10T05:18:18;12.76;118.99
66102;HTU21D;52883;51.094;5.880;2023-05-10T05:20:44;12.75;118.99
66102;HTU21D;52883;51.094;5.880;2023-05-10T05:23:09;12.75;118.99
66102;HTU21D;52883;51.094;5.880;2023-05-10T05:25:35;12.74;118.99
66102;HTU21D;52883;51.094;5.880;2023-05-10T05:28:01;12.75;118.99
66102;HTU21D;52883;51.094;5.880;2023-05-10T05:30:27;12.78;118.99
66102;HTU21D;52883;51.094;5.880;2023-05-10T05:32:52;12.81;118.99
66102;HTU21D;52883;51.094;5.880;2023-05-10T05:35:18;12.86;118.99
66102;HTU21D;52883;51.094;5.880;2023-05-10T05:37:43;12.88;118.99
66102;HTU21D;52883;51.094;5.880;2023-05-10T05:40:12;12.92;118.99
66102;HTU21D;52883;51.094;5.880;2023-05-10T05:42:38;13.00;118.99
66102;HTU21D;52883;51.094;5.880;2023-05-10T05:45:04;13.03;118.99
66102;HTU21D;52883;51.094;5.880;2023-05-10T05:47:30;13.01;118.99
66102;HTU21D;52883;51.094;5.880;2023-05-10T05:49:56;12.99;118.99
66102;HTU21D;52883;51.094;5.880;2023-05-10T05:52:21;12.96;118.99
66102;HTU21D;52883;51.094;5.880;2023-05-10T05:54:47;12.91;118.99
66102;HTU21D;52883;51.094;5.880;2023-05-10T05:57:12;12.90;118.99
66102;HTU21D;52883;51.094;5.880;2023-05-10T05:59:38;12.90;118.99
66102;HTU21D;52883;51.094;5.880;2023-05-10T06:02:10;12.88;118.99
66102;HTU21D;52883;51.094;5.880;2023-05-10T06:04:35;12.86;118.99
66102;HTU21D;52883;51.094;5.880;2023-05-10T06:07:01;12.89;118.99
66102;HTU21D;52883;51.094;5.880;2023-05-10T06:09:26;12.90;118.99
66102;HTU21D;52883;51.094;5.880;2023-05-10T06:11:52;12.91;118.99
66102;HTU21D;52883;51.094;5.880;2023-05-10T06:14:20;12.97;118.99
66102;HTU21D;52883;51.094;5.880;2023-05-10T06:16:45;13.14;118.99
66102;HTU21D;52883;51.094;5.880;2023-05-10T06:19:11;13.34;118.99
66102;HTU21D;52883;51.094;5.880;2023-05-10T06:21:37;13.61;118.99
66102;HTU21D;52883;51.094;5.880;2023-05-10T06:24:03;13.90;118.99
66102;HTU21D;52883;51.094;5.880;2023-05-10T06:26:28;14.24;118.99
66102;HTU21D;52883;51.094;5.880;2023-05-10T06:28:54;14.54;118.99
66102;HTU21D;52883;51.094;5.880;2023-05-10T06:31:20;14.87;118.99
66102;HTU21D;52883;51.094;5.880;2023-05-10T06:33:46;15.10;118.99
66102;HTU21D;52883;51.094;5.880;2023-05-10T06:36:11;15.26;118.99
66102;HTU21D;52883;51.094;5.880;2023-05-10T06:38:38;15.58;118.99
66102;HTU21D;52883;51.094;5.880;2023-05-10T06:41:04;16.18;118.99
66102;HTU21D;52883;51.094;5.880;2023-05-10T06:43:31;16.70;118.99
66102;HTU21D;52883;51.094;5.880;2023-05-10T06:45:57;16.98;118.99
66102;HTU21D;52883;51.094;5.880;2023-05-10T06:48:23;17.22;118.99
66102;HTU21D;52883;51.094;5.880;2023-05-10T06:50:49;17.55;118.99
66102;HTU21D;52883;51.094;5.880;2023-05-10T06:53:14;18.29;118.99
66102;HTU21D;52883;51.094;5.880;2023-05-10T06:55:40;18.71;118.99
66102;HTU21D;52883;51.094;5.880;2023-05-10T06:58:06;18.13;118.99
66102;HTU21D;52883;51.094;5.880;2023-05-10T07:00:32;17.63;118.99
66102;HTU21D;52883;51.094;5.880;2023-05-10T07:02:57;17.38;118.99
66102;HTU21D;52883;51.094;5.880;2023-05-10T07:05:23;17.29;118.99
66102;HTU21D;52883;51.094;5.880;2023-05-10T07:07:49;17.29;118.99
66102;HTU21D;52883;51.094;5.880;2023-05-10T07:10:15;17.37;118.99
66102;HTU21D;52883;51.094;5.880;2023-05-10T07:12:40;17.28;118.99
66102;HTU21D;52883;51.094;5.880;2023-05-10T07:15:06;17.20;118.99
66102;HTU21D;52883;51.094;5.880;2023-05-10T07:17:32;16.84;118.99
66102;HTU21D;52883;51.094;5.880;2023-05-10T07:19:59;16.48;118.99
66102;HTU21D;52883;51.094;5.880;2023-05-10T07:22:25;16.21;118.99
66102;HTU21D;52883;51.094;5.880;2023-05-10T07:24:51;16.12;118.99
66102;HTU21D;52883;51.094;5.880;2023-05-10T07:27:16;16.06;118.99
66102;HTU21D;52883;51.094;5.880;2023-05-10T07:29:42;15.87;118.99
66102;HTU21D;52883;51.094;5.880;2023-05-10T07:32:08;15.76;118.99
66102;HTU21D;52883;51.094;5.880;2023-05-10T07:34:33;15.71;118.99
66102;HTU21D;52883;51.094;5.880;2023-05-10T07:36:59;15.60;118.99
66102;HTU21D;52883;51.094;5.880;2023-05-10T07:39:26;15.62;118.99
66102;HTU21D;52883;51.094;5.880;2023-05-10T07:41:52;15.48;118.99
66102;HTU21D;52883;51.094;5.880;2023-05-10T07:44:17;15.34;118.99
66102;HTU21D;52883;51.094;5.880;2023-05-10T07:46:46;15.24;118.99
66102;HTU21D;52883;51.094;5.880;2023-05-10T07:49:13;15.17;118.99
66102;HTU21D;52883;51.094;5.880;2023-05-10T07:51:38;15.21;118.99
66102;HTU21D;52883;51.094;5.880;2023-05-10T07:54:04;15.26;118.99
66102;HTU21D;52883;51.094;5.880;2023-05-10T07:56:31;15.44;118.99
66102;HTU21D;52883;51.094;5.880;2023-05-10T07:59:02;15.56;118.99
66102;HTU21D;52883;51.094;5.880;2023-05-10T08:01:33;15.55;118.99
66102;HTU21D;52883;51.094;5.880;2023-05-10T08:04:00;15.49;118.99
66102;HTU21D;52883;51.094;5.880;2023-05-10T08:06:27;15.40;118.99
66102;HTU21D;52883;51.094;5.880;2023-05-10T08:08:55;15.34;118.99
66102;HTU21D;52883;51.094;5.880;2023-05-10T08:11:21;15.34;118.99
66102;HTU21D;52883;51.094;5.880;2023-05-10T08:13:49;15.43;118.99
66102;HTU21D;52883;51.094;5.880;2023-05-10T08:16:16;15.49;118.99
66102;HTU21D;52883;51.094;5.880;2023-05-10T08:18:44;15.55;118.99
66102;HTU21D;52883;51.094;5.880;2023-05-10T08:21:10;15.71;118.99
66102;HTU21D;52883;51.094;5.880;2023-05-10T08:23:36;15.85;118.99
66102;HTU21D;52883;51.094;5.880;2023-05-10T08:26:02;15.99;118.99
66102;HTU21D;52883;51.094;5.880;2023-05-10T08:28:28;16.01;118.99
66102;HTU21D;52883;51.094;5.880;2023-05-10T08:30:53;16.15;118.99
66102;HTU21D;52883;51.094;5.880;2023-05-10T08:33:19;16.45;118.99
66102;HTU21D;52883;51.094;5.880;2023-05-10T08:35:45;16.49;118.99
66102;HTU21D;52883;51.094;5.880;2023-05-10T08:38:10;16.37;118.99
66102;HTU21D;52883;51.094;5.880;2023-05-10T08:40:44;16.19;118.99
66102;HTU21D;52883;51.094;5.880;2023-05-10T08:43:13;15.97;118.99
66102;HTU21D;52883;51.094;5.880;2023-05-10T08:45:44;15.87;118.99
66102;HTU21D;52883;51.094;5.880;2023-05-10T08:48:13;16.05;118.99
66102;HTU21D;52883;51.094;5.880;2023-05-10T08:50:40;16.31;118.99
66102;HTU21D;52883;51.094;5.880;2023-05-10T08:53:11;16.56;118.99
66102;HTU21D;52883;51.094;5.880;2023-05-10T08:55:37;16.65;118.99
66102;HTU21D;52883;51.094;5.880;2023-05-10T08:58:04;16.67;118.99
66102;HTU21D;52883;51.094;5.880;2023-05-10T09:00:31;16.64;118.99
66102;HTU21D;52883;51.094;5.880;2023-05-10T09:02:58;16.69;118.99
66102;HTU21D;52883;51.094;5.880;2023-05-10T09:05:24;16.79;118.99
66102;HTU21D;52883;51.094;5.880;2023-05-10T09:07:50;17.05;118.99
66102;HTU21D;52883;51.094;5.880;2023-05-10T09:10:16;17.29;118.99
66102;HTU21D;52883;51.094;5.880;2023-05-10T09:12:43;17.59;118.99
66102;HTU21D;52883;51.094;5.880;2023-05-10T09:15:11;17.97;118.99
66102;HTU21D;52883;51.094;5.880;2023-05-10T09:17:40;18.28;118.99
66102;HTU21D;52883;51.094;5.880;2023-05-10T09:20:07;18.56;118.99
66102;HTU21D;52883;51.094;5.880;2023-05-10T09:22:34;18.83;118.99
66102;HTU21D;52883;51.094;5.880;2023-05-10T09:25:07;18.98;118.99
66102;HTU21D;52883;51.094;5.880;2023-05-10T09:27:33;19.02;118.99
66102;HTU21D;52883;51.094;5.880;2023-05-10T09:29:59;19.02;118.99
66102;HTU21D;52883;51.094;5.880;2023-05-10T09:32:42;19.20;118.99
66102;HTU21D;52883;51.094;5.880;2023-05-10T09:35:08;19.40;118.99
66102;HTU21D;52883;51.094;5.880;2023-05-10T09:37:34;19.86;118.99
66102;HTU21D;52883;51.094;5.880;2023-05-10T09:40:00;19.75;118.99
66102;HTU21D;52883;51.094;5.880;2023-05-10T09:42:25;19.77;118.99
66102;HTU21D;52883;51.094;5.880;2023-05-10T09:44:51;20.07;118.99
66102;HTU21D;52883;51.094;5.880;2023-05-10T09:47:17;20.35;118.99
66102;HTU21D;52883;51.094;5.880;2023-05-10T09:49:44;20.81;118.99
66102;HTU21D;52883;51.094;5.880;2023-05-10T09:52:10;20.91;118.99
66102;HTU21D;52883;51.094;5.880;2023-05-10T09:54:35;21.14;118.99
66102;HTU21D;52883;51.094;5.880;2023-05-10T09:57:01;21.51;118.99
66102;HTU21D;52883;51.094;5.880;2023-05-10T09:59:28;21.80;118.99
66102;HTU21D;52883;51.094;5.880;2023-05-10T10:01:58;21.80;118.99
66102;HTU21D;52883;51.094;5.880;2023-05-10T10:04:25;21.84;118.99
66102;HTU21D;52883;51.094;5.880;2023-05-10T10:07:04;21.73;118.99
66102;HTU21D;52883;51.094;5.880;2023-05-10T10:09:31;21.42;118.99
66102;HTU21D;52883;51.094;5.880;2023-05-10T10:11:56;20.94;118.99
66102;HTU21D;52883;51.094;5.880;2023-05-10T10:14:23;20.42;118.99
66102;HTU21D;52883;51.094;5.880;2023-05-10T10:16:50;20.19;118.99
66102;HTU21D;52883;51.094;5.880;2023-05-10T10:19:18;19.90;118.99
66102;HTU21D;52883;51.094;5.880;2023-05-10T10:21:43;19.75;118.99
66102;HTU21D;52883;51.094;5.880;2023-05-10T10:24:09;19.58;118.99
66102;HTU21D;52883;51.094;5.880;2023-05-10T10:26:36;19.47;118.99
66102;HTU21D;52883;51.094;5.880;2023-05-10T10:29:36;19.51;118.99
66102;HTU21D;52883;51.094;5.880;2023-05-10T10:32:24;19.54;118.99
66102;HTU21D;52883;51.094;5.880;2023-05-10T10:34:52;19.65;118.99
66102;HTU21D;52883;51.094;5.880;2023-05-10T10:37:19;19.94;118.99
66102;HTU21D;52883;51.094;5.880;2023-05-10T10:39:48;20.15;118.99
66102;HTU21D;52883;51.094;5.880;2023-05-10T10:42:13;20.44;118.99
66102;HTU21D;52883;51.094;5.880;2023-05-10T10:44:39;20.48;118.99
66102;HTU21D;52883;51.094;5.880;2023-05-10T10:52:20;21.07;118.99
66102;HTU21D;52883;51.094;5.880;2023-05-10T10:55:04;22.07;118.99
66102;HTU21D;52883;51.094;5.880;2023-05-10T10:57:54;22.71;118.99
66102;HTU21D;52883;51.094;5.880;2023-05-10T11:00:32;23.89;118.99
66102;HTU21D;52883;51.094;5.880;2023-05-10T11:03:06;24.61;118.99
66102;HTU21D;52883;51.094;5.880;2023-05-10T11:08:00;24.32;118.99
66102;HTU21D;52883;51.094;5.880;2023-05-10T11:10:26;23.94;118.99
66102;HTU21D;52883;51.094;5.880;2023-05-10T11:13:00;23.61;118.99
66102;HTU21D;52883;51.094;5.880;2023-05-10T11:15:36;23.50;118.99
66102;HTU21D;52883;51.094;5.880;2023-05-10T11:18:24;23.95;118.99
66102;HTU21D;52883;51.094;5.880;2023-05-10T11:20:51;24.33;118.99
66102;HTU21D;52883;51.094;5.880;2023-05-10T11:23:18;24.58;118.99
66102;HTU21D;52883;51.094;5.880;2023-05-10T11:25:45;24.79;118.99
66102;HTU21D;52883;51.094;5.880;2023-05-10T11:28:12;24.76;118.99
66102;HTU21D;52883;51.094;5.880;2023-05-10T11:30:39;24.15;118.99
66102;HTU21D;52883;51.094;5.880;2023-05-10T11:33:06;23.88;118.99
66102;HTU21D;52883;51.094;5.880;2023-05-10T11:35:41;23.60;118.99
66102;HTU21D;52883;51.094;5.880;2023-05-10T11:38:11;23.38;118.99
66102;HTU21D;52883;51.094;5.880;2023-05-10T11:40:39;23.38;118.99
66102;HTU21D;52883;51.094;5.880;2023-05-10T11:43:05;23.58;118.99
66102;HTU21D;52883;51.094;5.880;2023-05-10T11:45:34;23.94;118.99
66102;HTU21D;52883;51.094;5.880;2023-05-10T11:48:01;24.08;118.99
66102;HTU21D;52883;51.094;5.880;2023-05-10T11:50:28;24.15;118.99
66102;HTU21D;52883;51.094;5.880;2023-05-10T11:52:57;24.34;118.99
66102;HTU21D;52883;51.094;5.880;2023-05-10T11:55:24;24.45;118.99
66102;HTU21D;52883;51.094;5.880;2023-05-10T11:58:00;24.71;118.99
66102;HTU21D;52883;51.094;5.880;2023-05-10T12:00:27;24.91;118.99
66102;HTU21D;52883;51.094;5.880;2023-05-10T12:02:53;25.50;118.99
66102;HTU21D;52883;51.094;5.880;2023-05-10T12:05:19;26.32;118.99
66102;HTU21D;52883;51.094;5.880;2023-05-10T12:07:44;26.86;118.99
66102;HTU21D;52883;51.094;5.880;2023-05-10T12:10:13;27.12;118.99
66102;HTU21D;52883;51.094;5.880;2023-05-10T12:12:44;27.19;118.99
66102;HTU21D;52883;51.094;5.880;2023-05-10T12:15:31;27.16;118.99
66102;HTU21D;52883;51.094;5.880;2023-05-10T12:17:56;26.97;118.99
66102;HTU21D;52883;51.094;5.880;2023-05-10T12:20:23;26.81;118.99
66102;HTU21D;52883;51.094;5.880;2023-05-10T12:22:51;26.83;118.99
66102;HTU21D;52883;51.094;5.880;2023-05-10T12:25:19;26.97;118.99
66102;HTU21D;52883;51.094;5.880;2023-05-10T12:27:54;27.17;118.99
66102;HTU21D;52883;51.094;5.880;2023-05-10T12:32:47;27.11;118.99
66102;HTU21D;52883;51.094;5.880;2023-05-10T12:35:12;27.49;118.99
66102;HTU21D;52883;51.094;5.880;2023-05-10T12:37:38;27.70;118.99
66102;HTU21D;52883;51.094;5.880;2023-05-10T12:40:08;27.75;118.99
66102;HTU21D;52883;51.094;5.880;2023-05-10T12:42:35;27.45;118.99
66102;HTU21D;52883;51.094;5.880;2023-05-10T12:45:04;27.20;118.99
66102;HTU21D;52883;51.094;5.880;2023-05-10T12:47:31;27.08;118.99
66102;HTU21D;52883;51.094;5.880;2023-05-10T12:49:57;27.27;118.99
66102;HTU21D;52883;51.094;5.880;2023-05-10T12:52:23;27.14;118.99
66102;HTU21D;52883;51.094;5.880;2023-05-10T12:54:49;27.00;118.99
66102;HTU21D;52883;51.094;5.880;2023-05-10T12:57:14;26.76;118.99
66102;HTU21D;52883;51.094;5.880;2023-05-10T12:59:40;26.61;118.99
66102;HTU21D;52883;51.094;5.880;2023-05-10T13:02:06;26.41;118.99
66102;HTU21D;52883;51.094;5.880;2023-05-10T13:04:32;26.28;118.99
66102;HTU21D;52883;51.094;5.880;2023-05-10T13:06:57;26.06;118.99
66102;HTU21D;52883;51.094;5.880;2023-05-10T13:09:24;25.90;118.99
66102;HTU21D;52883;51.094;5.880;2023-05-10T13:11:51;26.06;118.99
66102;HTU21D;52883;51.094;5.880;2023-05-10T13:14:18;26.08;118.99
66102;HTU21D;52883;51.094;5.880;2023-05-10T13:16:46;26.28;118.99
66102;HTU21D;52883;51.094;5.880;2023-05-10T13:19:12;26.34;118.99
66102;HTU21D;52883;51.094;5.880;2023-05-10T13:21:38;26.43;118.99
66102;HTU21D;52883;51.094;5.880;2023-05-10T13:24:06;26.56;118.99
66102;HTU21D;52883;51.094;5.880;2023-05-10T13:26:32;26.67;118.99
66102;HTU21D;52883;51.094;5.880;2023-05-10T13:28:58;26.76;118.99
66102;HTU21D;52883;51.094;5.880;2023-05-10T13:31:24;26.67;118.99
66102;HTU21D;52883;51.094;5.880;2023-05-10T13:33:49;26.49;118.99
66102;HTU21D;52883;51.094;5.880;2023-05-10T13:36:15;26.49;118.99
66102;HTU21D;52883;51.094;5.880;2023-05-10T13:38:41;26.47;118.99
66102;HTU21D;52883;51.094;5.880;2023-05-10T13:41:06;26.49;118.99
66102;HTU21D;52883;51.094;5.880;2023-05-10T13:43:32;26.61;118.99
66102;HTU21D;52883;51.094;5.880;2023-05-10T13:45:57;26.28;118.99
66102;HTU21D;52883;51.094;5.880;2023-05-10T13:48:23;25.95;118.99
66102;HTU21D;52883;51.094;5.880;2023-05-10T13:50:49;25.63;118.99
66102;HTU21D;52883;51.094;5.880;2023-05-10T13:53:15;25.39;118.99
66102;HTU21D;52883;51.094;5.880;2023-05-10T13:55:41;25.21;118.99
66102;HTU21D;52883;51.094;5.880;2023-05-10T13:58:06;25.08;118.99
66102;HTU21D;52883;51.094;5.880;2023-05-10T14:00:32;24.97;118.99
66102;HTU21D;52883;51.094;5.880;2023-05-10T14:02:57;24.66;118.99
66102;HTU21D;52883;51.094;5.880;2023-05-10T14:05:23;24.69;118.99
66102;HTU21D;52883;51.094;5.880;2023-05-10T14:07:50;24.70;118.99
66102;HTU21D;52883;51.094;5.880;2023-05-10T14:10:16;24.66;118.99
66102;HTU21D;52883;51.094;5.880;2023-05-10T14:12:41;24.65;118.99
66102;HTU21D;52883;51.094;5.880;2023-05-10T14:15:07;24.68;118.99
66102;HTU21D;52883;51.094;5.880;2023-05-10T14:17:35;24.72;118.99
66102;HTU21D;52883;51.094;5.880;2023-05-10T14:20:01;24.62;118.99
66102;HTU21D;52883;51.094;5.880;2023-05-10T14:22:27;24.46;118.99
66102;HTU21D;52883;51.094;5.880;2023-05-10T14:24:52;24.41;118.99
66102;HTU21D;52883;51.094;5.880;2023-05-10T14:27:18;24.54;118.99
66102;HTU21D;52883;51.094;5.880;2023-05-10T14:29:44;24.63;118.99
66102;HTU21D;52883;51.094;5.880;2023-05-10T14:32:10;24.47;118.99
66102;HTU21D;52883;51.094;5.880;2023-05-10T14:34:36;24.24;118.99
66102;HTU21D;52883;51.094;5.880;2023-05-10T14:37:01;24.11;118.99
66102;HTU21D;52883;51.094;5.880;2023-05-10T14:39:27;24.06;118.99
66102;HTU21D;52883;51.094;5.880;2023-05-10T14:41:55;24.26;118.99
66102;HTU21D;52883;51.094;5.880;2023-05-10T14:44:20;24.35;118.99
66102;HTU21D;52883;51.094;5.880;2023-05-10T14:46:46;24.44;118.99
66102;HTU21D;52883;51.094;5.880;2023-05-10T14:49:13;24.47;118.99
66102;HTU21D;52883;51.094;5.880;2023-05-10T14:51:38;24.61;118.99
66102;HTU21D;52883;51.094;5.880;2023-05-10T14:54:04;24.70;118.99
66102;HTU21D;52883;51.094;5.880;2023-05-10T14:56:29;24.79;118.99
66102;HTU21D;52883;51.094;5.880;2023-05-10T14:58:55;24.87;118.99
66102;HTU21D;52883;51.094;5.880;2023-05-10T15:01:21;24.76;118.99
66102;HTU21D;52883;51.094;5.880;2023-05-10T15:03:46;24.79;118.99
66102;HTU21D;52883;51.094;5.880;2023-05-10T15:06:14;24.77;118.99
66102;HTU21D;52883;51.094;5.880;2023-05-10T15:08:39;24.77;118.99
66102;HTU21D;52883;51.094;5.880;2023-05-10T15:11:05;24.69;118.99
66102;HTU21D;52883;51.094;5.880;2023-05-10T15:13:30;24.59;118.99
66102;HTU21D;52883;51.094;5.880;2023-05-10T15:15:56;24.40;118.99
66102;HTU21D;52883;51.094;5.880;2023-05-10T15:18:21;24.23;118.99
66102;HTU21D;52883;51.094;5.880;2023-05-10T15:20:47;24.03;118.99
66102;HTU21D;52883;51.094;5.880;2023-05-10T15:23:13;23.98;118.99
66102;HTU21D;52883;51.094;5.880;2023-05-10T15:25:38;24.05;118.99
66102;HTU21D;52883;51.094;5.880;2023-05-10T15:28:05;24.02;118.99